x

Pt Arena - 19nm North Of Point Arena, Ca (46014) Wave Buoy

10:50pm - Thu 18th Dec 2014 All times are PST. -8 hours from GMT.

  • Sig Wave height 8.9ft
  • Peak Period 13s
  • Average Period 6s
  • Wind
    29mph, 34mph gusts
  • Sea Temp 59°f
  • Air Temp 56°f
  • Sea Pressure 1017.9mb
  • Pt Arena - 19nm North Of Point Arena, Ca
  • Pt Arena - 19nm North Of Point Arena, Ca

More Historic Weather Station data

Upgrade to MSW Pro to gain access to the past 30 days of data for over 8000 Wavebouys and Weather Stations around the globe.

Join Pro

Comparision Forecast

View Surf forecast
   
Thu 12/18 10:50pm 9ft 13s 6s 29 34 mph 1017.9mb 59f 56f
9:50pm 9ft 14s 6s 29 36 mph 1018mb 59f 56f
8:50pm 8.5ft 14s 6s 27 34 mph 1018.1mb 59f 56f
7:50pm 7ft 13s 6s 29 34 mph 1017.6mb 59f 58f
6:50pm 8.5ft 14s 7s 25 31 mph 1017.6mb 59f 58f
5:50pm 9ft 12s 7s 25 29 mph 1018mb 59f 58f
4:50pm  -   -   -  25 29 mph 1018mb 59f 58f
3:50pm 10ft 14s 7s 22 27 mph 1018.4mb 59f 58f
2:50pm  -   -   -  22 27 mph 1018.2mb 59f 58f
1:50pm 10.5ft 10s 8s 20 25 mph 1018.5mb 59f 58f
12:50pm 11ft 12s 9s 20 22 mph 1019.3mb 59f 57f
11:50am 11ft 12s 9s 16 20 mph 1020mb 59f 57f
10:50am 11.5ft 12s 9s 16 22 mph 1020.1mb 59f 56f
9:50am 12ft 15s 9s 16 18 mph 1020.3mb 59f 56f
8:50am 12ft 12s 10s 13 20 mph 1020mb 59f 56f
7:50am 11.5ft 14s 9s 16 18 mph 1019.2mb 59f 56f
6:50am 11ft 14s 9s 11 16 mph 1018.2mb 59f 55f
4:50am  -   -   -  13 18 mph 1017.2mb 59f 55f
3:50am  -   -   -  18 22 mph 1017.4mb 59f 56f
2:50am 10ft 14s 7s 20 25 mph 1016.8mb 59f 56f
1:50am 9ft 14s 7s 16 20 mph 1016.7mb 59f 56f
12:50am  -   -   -  20 27 mph 1016.2mb 59f 56f
Wed 12/17 11:50pm  -   -   -  20 29 mph 1016.4mb 59f 56f
10:50pm  -   -   -  18
mph
1015.9mb 59f 55f
9:50pm 9ft 13s 7s 22 31 mph 1015.3mb 59f 56f
8:50pm  -   -   -  18 27 mph 1014.9mb 59f 55f
7:50pm  -   -   -  20 27 mph 1014.6mb 59f 54f
6:50pm 9ft 14s 7s 22 29 mph 1014.4mb 59f 54f
5:50pm 10.5ft 15s 8s 25 31 mph 1014.1mb 59f 53f
4:50pm  -   -   -  25 31 mph 1014.1mb 59f 52f
3:50pm  -   -   -  22 29 mph 1014.2mb 59f 53f
2:50pm 12ft 11s 8s 20 25 mph 1014.5mb 59f 54f
1:50pm 13ft 11s 8s 18 22 mph 1014.9mb 59f 54f
12:50pm 12ft 11s 8s 18 22 mph 1015.1mb 59f 56f
11:50am 11ft 12s 8s 13 16 mph 1016mb 59f 57f
10:50am 11ft 11s 8s 11 18 mph 1016.1mb 59f 57f
8:50am 13ft 12s 9s 13 16 mph 1016.1mb 60f 57f
7:50am  -   -   -  13 20 mph 1015.2mb 60f 56f
6:50am  -   -   -  13 18 mph 1014.6mb 60f 56f
4:50am 15.5ft 13s 9s 18 22 mph 1013.1mb 60f 57f
3:50am  -   -   -  20 29 mph 1012.8mb 60f 56f
2:50am 17ft 12s 9s 20 25 mph 1012.5mb 60f 56f
1:50am  -   -   -  29 36 mph 1011.6mb 60f 55f
12:50am 17.5ft 12s 9s 29 36 mph 1011.2mb 60f 56f
Tue 12/16 11:50pm  -   -   -  16 25 mph 1011.3mb 60f 54f
10:50pm 15ft 12s 8s 25 29 mph 1010.6mb 60f 56f
9:50pm  -   -   -  22 29 mph 1010.3mb 60f 56f
8:50pm 11.5ft 13s 7s 18 22 mph 1010.1mb 60f 53f
7:50pm 12ft 12s 8s 13 18 mph 1009.7mb 60f 55f
6:50pm 10ft 14s 7s 20 22 mph 1009.2mb 60f 56f
5:50pm 10.5ft 14s 7s 16 22 mph 1008.6mb 60f 58f
4:50pm 11ft 14s 7s 9 11 mph 1008.2mb 60f 56f
3:50pm  -   -   -  13 29 mph 1007.5mb 60f 55f
2:50pm 13ft 14s 7s 22 29 mph 1006.2mb 60f 56f
1:50pm 12ft 14s 6s 31 45 mph 1005.8mb 60f 55f
12:50pm  -   -   -  34 40 mph 1005.8mb 60f 56f
11:50am 11ft 15s 7s 31 38 mph 1007mb 60f 57f
10:50am  -   -   -  34 40 mph 1008.5mb 60f 57f
9:50am 12ft 11s 8s 29 36 mph 1009.3mb 60f 57f
8:50am 13.5ft 13s 9s 27 34 mph 1009.9mb 60f 56f
7:50am 15ft 13s 10s 25 29 mph 1010.2mb 60f 55f
6:50am 16ft 15s 10s 22 29 mph 1010.3mb 60f 56f
5:50am 15.5ft 15s 11s 20 27 mph 1010.4mb 60f 56f
4:50am 16.5ft 15s 11s 18 25 mph 1010.8mb 60f 56f
3:50am 16.5ft 15s 11s 18 25 mph 1011.1mb 60f 56f
2:50am 16.5ft 15s 11s 16 22 mph 1011.6mb 60f 56f
1:50am 15.5ft 15s 11s 20 25 mph 1011.3mb 60f 55f
12:50am 15.5ft 15s 11s 20 25 mph 1011.3mb 60f 55f
Mon 12/15 11:50pm  -   -   -  18 22 mph 1011.5mb 60f 56f
10:50pm 13.5ft 16s 11s 16 20 mph 1011.4mb 60f 56f
9:50pm 12ft 16s 10s 18 22 mph 1010.9mb 60f 56f
8:50pm  -   -   -  16 20 mph 1010.7mb 60f 56f
7:50pm 13.5ft 16s 11s 18 22 mph 1010.5mb 60f 55f
6:50pm 14ft 16s 11s 18 22 mph 1010.1mb 60f 55f
5:50pm 13.5ft 17s 11s 20 25 mph 1009.6mb 60f 54f
4:50pm 13ft 17s 10s 18 25 mph 1009.4mb 60f 54f
3:50pm 15ft 17s 11s 20 25 mph 1009mb 60f 55f
2:50pm  -   -   -  16 22 mph 1008.8mb 60f 55f
1:50pm 14ft 17s 10s 20 29 mph 1008.4mb 60f 55f
12:50pm 14.5ft 17s 10s 18 22 mph 1008.8mb 60f 54f
11:50am 15.5ft 17s 10s 18 25 mph 1009.9mb 60f 54f
10:50am 14ft 17s 9s 27 34 mph 1009.8mb 60f 54f
9:50am  -   -   -  25 36 mph 1010.4mb 60f 53f
8:50am 16ft 19s 10s 20 27 mph 1010.1mb 60f 55f
7:50am  -   -   -  22 27 mph 1009.7mb 60f 54f